createdAt,value
2022-11-19T00:03:18.067Z,5.11
2022-11-19T00:06:18.984Z,5.08
2022-11-19T00:09:39.412Z,5.05
2022-11-19T00:12:49.178Z,5.11
2022-11-19T00:16:09.143Z,5.05
2022-11-19T00:19:15.889Z,5.05
2022-11-19T00:22:19.651Z,4.96
2022-11-19T00:25:24.398Z,5.02
2022-11-19T00:28:32.181Z,4.90
2022-11-19T00:31:35.777Z,4.97
2022-11-19T00:35:32.451Z,4.91
2022-11-19T00:39:18.294Z,4.98
2022-11-19T00:42:32.450Z,4.98
2022-11-19T00:46:10.642Z,4.86
2022-11-19T00:49:31.296Z,4.89
2022-11-19T00:53:04.567Z,4.93
2022-11-19T00:59:34.513Z,4.83
2022-11-19T01:02:45.199Z,4.91
2022-11-19T01:05:51.881Z,4.87
2022-11-19T01:08:58.212Z,4.89
2022-11-19T01:12:07.949Z,4.91
2022-11-19T01:18:48.331Z,5.00
2022-11-19T01:22:02.206Z,4.97
2022-11-19T01:25:08.127Z,4.98
2022-11-19T01:28:10.142Z,4.96
2022-11-19T01:31:47.399Z,4.96
2022-11-19T01:34:57.940Z,5.03
2022-11-19T01:38:07.476Z,4.99
2022-11-19T01:41:14.491Z,4.92
2022-11-19T01:44:56.323Z,5.07
2022-11-19T01:48:03.694Z,5.01
2022-11-19T01:51:15.604Z,4.99
2022-11-19T01:54:25.474Z,4.99
2022-11-19T01:57:32.044Z,5.06
2022-11-19T02:00:34.532Z,4.95
2022-11-19T02:03:41.014Z,4.92
2022-11-19T02:06:47.498Z,4.88
2022-11-19T02:09:53.865Z,4.96
2022-11-19T02:13:13.324Z,4.94
2022-11-19T02:16:28.114Z,4.93
2022-11-19T02:21:01.327Z,4.94
2022-11-19T02:23:52.291Z,4.98
2022-11-19T02:27:38.619Z,4.97
2022-11-19T02:30:46.299Z,4.97
2022-11-19T02:33:57.882Z,5.01
2022-11-19T02:37:06.465Z,4.96
2022-11-19T02:40:14.768Z,5.04
2022-11-19T02:43:30.370Z,5.07
2022-11-19T02:46:39.404Z,5.07
2022-11-19T02:49:49.218Z,4.95
2022-11-19T02:52:56.465Z,4.96
2022-11-19T02:56:13.770Z,4.86
2022-11-19T02:59:21.369Z,4.80
2022-11-19T03:02:36.050Z,4.77
2022-11-19T03:06:30.084Z,4.73
2022-11-19T03:09:20.759Z,4.72
2022-11-19T03:12:48.362Z,4.62
2022-11-19T03:15:56.011Z,4.64
2022-11-19T03:19:21.505Z,4.67
2022-11-19T03:23:01.045Z,4.67
2022-11-19T03:26:33.914Z,4.70
2022-11-19T03:30:12.550Z,4.75
2022-11-19T03:33:25.064Z,4.76
2022-11-19T03:36:34.578Z,4.73
2022-11-19T03:40:01.364Z,4.71
2022-11-19T03:43:31.899Z,4.82
2022-11-19T03:46:54.568Z,4.71
2022-11-19T03:50:56.728Z,4.76
2022-11-19T03:53:54.011Z,4.78
2022-11-19T03:57:20.185Z,4.81
2022-11-19T04:00:22.328Z,4.80
2022-11-19T04:03:30.504Z,4.86
2022-11-19T04:06:34.049Z,4.89
2022-11-19T04:09:38.427Z,4.90
2022-11-19T04:12:54.820Z,4.95
2022-11-19T04:15:56.735Z,4.93
2022-11-19T04:18:58.720Z,4.98
2022-11-19T04:22:12.345Z,5.01
2022-11-19T04:25:18.279Z,4.95
2022-11-19T04:28:24.090Z,4.92
2022-11-19T04:32:16.976Z,4.83
2022-11-19T04:35:12.676Z,4.92
2022-11-19T04:38:14.632Z,4.87
2022-11-19T04:41:17.973Z,4.89
2022-11-19T04:44:43.529Z,4.88
2022-11-19T04:47:45.510Z,4.82
2022-11-19T04:50:53.387Z,4.90
2022-11-19T04:53:58.093Z,4.89
2022-11-19T04:57:08.963Z,4.84
2022-11-19T05:00:17.099Z,4.85
2022-11-19T05:03:26.708Z,4.83
2022-11-19T05:06:34.028Z,4.71
2022-11-19T05:09:42.097Z,4.82
2022-11-19T05:12:59.854Z,4.82
2022-11-19T05:16:11.868Z,4.80
2022-11-19T05:19:40.483Z,4.82
2022-11-19T05:22:49.245Z,4.75
2022-11-19T05:25:53.257Z,4.72
2022-11-19T05:30:07.168Z,4.80
2022-11-19T05:32:49.737Z,4.77
2022-11-19T05:36:01.651Z,4.76
2022-11-19T05:39:08.237Z,4.81
2022-11-19T05:42:18.010Z,4.80
2022-11-19T05:45:27.896Z,4.79
2022-11-19T05:48:38.168Z,4.77
2022-11-19T05:52:02.288Z,4.86
2022-11-19T05:55:05.001Z,4.83
2022-11-19T05:58:08.906Z,4.89
2022-11-19T06:01:36.016Z,4.79
2022-11-19T06:04:38.201Z,4.87
2022-11-19T06:07:40.377Z,4.87
2022-11-19T06:10:55.593Z,4.80
2022-11-19T06:14:08.507Z,4.96
2022-11-19T06:17:16.183Z,4.79
2022-11-19T06:20:18.176Z,4.88
2022-11-19T06:23:23.904Z,4.88
2022-11-19T06:26:48.864Z,4.88
2022-11-19T06:30:06.408Z,4.93
2022-11-19T06:33:12.344Z,4.81
2022-11-19T06:36:32.033Z,4.88
2022-11-19T06:39:39.217Z,4.89
2022-11-19T06:43:13.756Z,5.05
2022-11-19T06:46:09.905Z,4.97
2022-11-19T06:49:19.867Z,5.02
2022-11-19T06:52:22.462Z,5.01
2022-11-19T06:55:24.408Z,4.93
2022-11-19T06:58:33.147Z,4.98
2022-11-19T07:01:40.834Z,4.94
2022-11-19T07:04:44.273Z,5.06
2022-11-19T07:07:50.403Z,5.13
2022-11-19T07:10:52.355Z,5.09
2022-11-19T07:13:55.097Z,5.09
2022-11-19T07:16:57.086Z,5.15
2022-11-19T07:20:00.797Z,5.17
2022-11-19T07:23:03.936Z,5.18
2022-11-19T07:26:07.374Z,5.20
2022-11-19T07:29:12.648Z,5.25
2022-11-19T07:32:14.617Z,5.18
2022-11-19T07:35:18.220Z,5.08
2022-11-19T07:38:20.209Z,5.13
2022-11-19T07:41:22.226Z,5.14
2022-11-19T07:44:24.192Z,5.12
2022-11-19T07:47:26.160Z,5.09
2022-11-19T07:50:29.522Z,5.17
2022-11-19T07:53:31.493Z,5.18
2022-11-19T07:56:33.499Z,5.23
2022-11-19T07:59:35.472Z,5.24
2022-11-19T08:02:37.413Z,5.26
2022-11-19T08:05:41.323Z,5.33
2022-11-19T08:08:44.008Z,5.38
2022-11-19T08:11:46.001Z,5.25
2022-11-19T08:14:47.967Z,5.20
2022-11-19T08:17:49.862Z,5.15
2022-11-19T08:20:53.196Z,5.04
2022-11-19T08:23:55.351Z,4.98
2022-11-19T08:26:57.381Z,4.93
2022-11-19T08:29:59.376Z,4.91
2022-11-19T08:33:01.385Z,4.88
2022-11-19T08:36:05.397Z,4.73
2022-11-19T08:39:07.948Z,4.74
2022-11-19T08:42:10.107Z,4.91
2022-11-19T08:45:15.589Z,4.75
2022-11-19T08:48:20.119Z,4.70
2022-11-19T08:51:23.522Z,4.60
2022-11-19T08:54:25.612Z,4.62
2022-11-19T08:57:27.498Z,4.57
2022-11-19T09:00:30.666Z,4.65
2022-11-19T09:03:32.591Z,4.64
2022-11-19T09:06:36.089Z,4.12
2022-11-19T09:09:43.712Z,4.01
2022-11-19T09:12:49.940Z,3.83
2022-11-19T09:15:54.755Z,3.16
2022-11-19T09:18:56.742Z,3.38
2022-11-19T09:22:02.088Z,3.45
2022-11-19T09:25:04.756Z,3.50
2022-11-19T09:28:12.394Z,3.45
2022-11-19T09:31:28.884Z,3.50
2022-11-19T09:34:31.005Z,3.61
2022-11-19T09:37:34.362Z,3.56
2022-11-19T09:40:37.695Z,3.31
2022-11-19T09:43:53.015Z,3.42
2022-11-19T09:47:04.446Z,3.28
2022-11-19T09:50:15.180Z,3.43
2022-11-19T09:53:24.105Z,3.42
2022-11-19T09:56:33.436Z,3.40
2022-11-19T09:59:41.308Z,3.59
2022-11-19T10:02:43.385Z,3.70
2022-11-19T10:05:58.639Z,3.49
2022-11-19T10:09:41.220Z,3.53
2022-11-19T10:13:05.637Z,3.59
2022-11-19T10:16:33.810Z,3.35
2022-11-19T10:19:55.981Z,3.31
2022-11-19T10:23:35.135Z,3.26
2022-11-19T10:26:49.179Z,3.34
2022-11-19T10:30:09.057Z,3.41
2022-11-19T10:33:37.899Z,3.49
2022-11-19T10:40:18.098Z,3.66
2022-11-19T10:46:56.113Z,3.80
2022-11-19T10:50:09.861Z,3.89
2022-11-19T10:53:22.681Z,3.94
2022-11-19T10:56:50.605Z,3.95
2022-11-19T11:00:07.710Z,3.88
2022-11-19T11:03:40.941Z,3.94
2022-11-19T11:06:55.554Z,4.02
2022-11-19T11:10:01.695Z,4.07
2022-11-19T11:13:23.417Z,4.11
2022-11-19T11:16:43.869Z,4.21
2022-11-19T11:19:55.316Z,4.05
2022-11-19T11:23:05.175Z,4.11
2022-11-19T11:26:10.063Z,4.13
2022-11-19T11:29:26.159Z,4.21
2022-11-19T11:32:31.060Z,4.14
2022-11-19T11:35:35.505Z,4.19
2022-11-19T11:38:43.713Z,4.23
2022-11-19T11:42:06.673Z,4.20
2022-11-19T11:45:22.738Z,4.23
2022-11-19T11:48:30.623Z,4.28
2022-11-19T11:51:35.405Z,4.32
2022-11-19T11:54:38.428Z,4.32
2022-11-19T11:57:51.720Z,4.32
2022-11-19T12:00:55.139Z,4.22
2022-11-19T12:04:00.087Z,4.16
2022-11-19T12:07:12.088Z,4.08
2022-11-19T12:10:33.474Z,4.26
2022-11-19T12:13:52.321Z,4.19
2022-11-19T12:17:07.722Z,4.45
2022-11-19T12:20:37.675Z,4.34
2022-11-19T12:24:07.964Z,4.41
2022-11-19T12:27:19.848Z,4.34
2022-11-19T12:30:24.398Z,4.33
2022-11-19T12:33:42.167Z,4.38
2022-11-19T12:36:55.296Z,4.41
2022-11-19T12:40:05.569Z,4.46
2022-11-19T12:43:24.641Z,4.55
2022-11-19T12:46:43.394Z,4.42
2022-11-19T12:49:58.206Z,4.41
2022-11-19T12:53:11.947Z,4.49
2022-11-19T12:56:28.835Z,4.45
2022-11-19T12:59:45.821Z,4.47
2022-11-19T13:03:01.035Z,4.51
2022-11-19T13:06:07.761Z,4.45
2022-11-19T13:09:20.519Z,4.27
2022-11-19T13:12:30.664Z,4.35
2022-11-19T13:15:38.256Z,4.33
2022-11-19T13:18:44.054Z,4.31
2022-11-19T13:21:52.926Z,4.33
2022-11-19T13:24:59.672Z,4.29
2022-11-19T13:28:03.963Z,4.33
2022-11-19T13:31:14.666Z,4.27
2022-11-19T13:34:21.350Z,4.18
2022-11-19T13:37:39.958Z,4.20
2022-11-19T13:40:47.126Z,4.27
2022-11-19T13:43:49.457Z,4.33
2022-11-19T13:46:57.340Z,4.36
2022-11-19T13:50:03.154Z,4.33
2022-11-19T13:53:12.193Z,4.26
2022-11-19T13:56:17.767Z,4.32
2022-11-19T13:59:31.212Z,4.24
2022-11-19T14:03:04.155Z,4.35
2022-11-19T14:06:26.862Z,4.38
2022-11-19T14:09:39.527Z,4.30
2022-11-19T14:13:02.471Z,4.21
2022-11-19T14:16:19.880Z,4.16
2022-11-19T14:19:22.360Z,4.32
2022-11-19T14:22:31.995Z,4.14
2022-11-19T14:25:42.088Z,4.17
2022-11-19T14:28:49.585Z,3.79
2022-11-19T14:32:19.190Z,3.66
2022-11-19T14:35:33.579Z,3.58
2022-11-19T14:38:42.018Z,3.59
2022-11-19T14:42:33.474Z,3.56
2022-11-19T14:45:22.574Z,3.50
2022-11-19T14:48:24.837Z,3.49
2022-11-19T14:51:31.543Z,3.47
2022-11-19T14:55:00.340Z,3.37
2022-11-19T14:58:24.556Z,3.45
2022-11-19T15:01:28.601Z,3.29
2022-11-19T15:05:18.501Z,3.18
2022-11-19T15:08:47.783Z,3.19
2022-11-19T15:12:49.744Z,3.18
2022-11-19T15:15:56.036Z,3.08
2022-11-19T15:19:36.298Z,3.08
2022-11-19T15:23:27.459Z,3.07
2022-11-19T15:26:51.201Z,3.03
2022-11-19T15:30:08.519Z,3.00
2022-11-19T15:34:09.249Z,3.00
2022-11-19T15:37:16.836Z,3.13
2022-11-19T15:44:37.387Z,3.10
2022-11-19T15:47:59.324Z,3.21
2022-11-19T15:51:35.109Z,3.33
2022-11-19T15:58:46.319Z,3.27
2022-11-19T16:05:35.930Z,3.14
2022-11-19T16:08:42.108Z,3.24
2022-11-19T16:11:46.223Z,3.26
2022-11-19T16:14:56.134Z,3.28
2022-11-19T16:17:59.321Z,3.35
2022-11-19T16:21:03.974Z,3.34
2022-11-19T16:24:10.655Z,3.40
2022-11-19T16:27:19.857Z,3.43
2022-11-19T16:30:25.130Z,3.43
2022-11-19T16:33:41.674Z,3.45
2022-11-19T16:36:59.161Z,3.46
2022-11-19T16:40:18.424Z,3.43
2022-11-19T16:43:28.436Z,3.33
2022-11-19T16:46:52.748Z,3.28
2022-11-19T16:50:10.537Z,3.34
2022-11-19T16:53:36.676Z,3.63
2022-11-19T16:56:49.733Z,3.70
2022-11-19T17:00:11.830Z,3.67
2022-11-19T17:03:31.677Z,3.42
2022-11-19T17:06:34.310Z,3.47
2022-11-19T17:09:40.305Z,3.56
2022-11-19T17:12:51.160Z,3.57
2022-11-19T17:15:53.432Z,3.58
2022-11-19T17:18:57.229Z,3.58
2022-11-19T17:22:01.341Z,3.63
2022-11-19T17:25:04.575Z,3.61
2022-11-19T17:28:06.947Z,3.67
2022-11-19T17:31:16.359Z,3.78
2022-11-19T18:12:16.021Z,3.64
2022-11-19T18:19:39.915Z,3.64
2022-11-19T18:20:26.312Z,3.58
2022-11-19T18:23:34.982Z,3.70
2022-11-19T18:27:30.834Z,3.71
2022-11-19T18:34:35.010Z,3.73
2022-11-19T18:38:02.125Z,3.67
2022-11-19T18:41:37.534Z,3.64
2022-11-19T18:45:40.199Z,3.52
2022-11-19T18:49:02.058Z,3.50
2022-11-19T18:52:41.123Z,3.56
2022-11-19T18:56:05.403Z,3.64
2022-11-19T19:03:29.980Z,3.51
2022-11-19T19:06:51.498Z,3.53
2022-11-19T19:10:03.908Z,3.51
2022-11-19T19:13:10.749Z,3.54
2022-11-19T19:16:16.182Z,3.55
2022-11-19T19:19:31.621Z,3.55
2022-11-19T19:22:57.053Z,3.43
2022-11-19T19:26:05.923Z,3.44
2022-11-19T19:32:47.560Z,3.45
2022-11-19T19:36:06.549Z,3.36
2022-11-19T19:43:17.436Z,3.34
2022-11-19T19:46:53.777Z,3.25
2022-11-19T19:49:51.405Z,3.25
2022-11-19T19:53:13.745Z,3.29
2022-11-19T19:56:46.514Z,3.30
2022-11-19T19:59:57.041Z,3.33
2022-11-19T20:03:01.914Z,3.34
2022-11-19T20:06:08.201Z,3.33
2022-11-19T20:09:13.218Z,3.31
2022-11-19T20:12:32.065Z,3.31
2022-11-19T20:15:35.352Z,3.16
2022-11-19T20:18:40.846Z,3.20
2022-11-19T20:21:55.424Z,3.14
2022-11-19T20:25:03.787Z,3.17
2022-11-19T20:28:12.698Z,3.17
2022-11-19T20:31:22.161Z,3.22
2022-11-19T20:34:32.443Z,3.17
2022-11-19T20:37:35.762Z,3.14
2022-11-19T20:40:42.028Z,3.19
2022-11-19T20:43:55.659Z,3.24
2022-11-19T20:47:01.956Z,3.17
2022-11-19T20:50:17.618Z,3.12
2022-11-19T20:53:27.020Z,3.15
2022-11-19T20:56:33.985Z,3.17
2022-11-19T20:59:38.158Z,3.17
2022-11-19T21:02:42.809Z,3.03
2022-11-19T21:05:48.267Z,3.04
2022-11-19T21:08:51.320Z,3.13
2022-11-19T21:11:53.823Z,3.11
2022-11-19T21:14:59.296Z,3.15
2022-11-19T21:18:01.878Z,3.09
2022-11-19T21:21:05.153Z,3.02
2022-11-19T21:24:08.325Z,3.04
2022-11-19T21:27:10.891Z,3.08
2022-11-19T21:30:14.852Z,3.15
2022-11-19T21:33:17.245Z,3.16
2022-11-19T21:36:19.158Z,3.14
2022-11-19T21:39:21.775Z,3.17
2022-11-19T21:42:25.243Z,3.14
2022-11-19T21:45:28.550Z,3.07
2022-11-19T21:48:30.584Z,3.01
2022-11-19T21:51:32.718Z,2.99
2022-11-19T21:54:34.652Z,2.98
2022-11-19T21:57:36.581Z,3.03
2022-11-19T22:00:41.144Z,3.02
2022-11-19T22:03:43.154Z,3.02
2022-11-19T22:06:45.181Z,2.98
2022-11-19T22:09:47.116Z,3.00
2022-11-19T22:12:49.018Z,2.92
2022-11-19T22:15:59.121Z,2.90
2022-11-19T22:19:01.152Z,2.86
2022-11-19T22:22:03.327Z,2.82
2022-11-19T22:28:25.092Z,2.83
2022-11-19T22:31:28.436Z,2.91
2022-11-19T22:34:32.025Z,2.85
2022-11-19T22:37:33.997Z,2.87
2022-11-19T22:40:35.937Z,2.89
2022-11-19T22:43:42.410Z,2.93
2022-11-19T22:46:45.832Z,2.88
2022-11-19T22:49:51.963Z,2.92
2022-11-19T22:52:55.765Z,2.93
2022-11-19T22:56:02.974Z,2.90
2022-11-19T22:59:04.875Z,2.87
2022-11-19T23:02:08.216Z,2.92
2022-11-19T23:05:20.421Z,2.90
2022-11-19T23:08:27.145Z,2.92
2022-11-19T23:11:41.559Z,2.94
2022-11-19T23:14:49.023Z,2.86
2022-11-19T23:17:56.456Z,2.79
2022-11-19T23:21:04.549Z,2.85
2022-11-19T23:24:24.935Z,2.85
2022-11-19T23:27:26.940Z,2.84
2022-11-19T23:30:28.839Z,2.83
2022-11-19T23:33:39.558Z,2.82
2022-11-19T23:36:41.723Z,2.80
2022-11-19T23:39:46.130Z,2.89
2022-11-19T23:42:51.883Z,2.90
2022-11-19T23:45:58.609Z,2.85
2022-11-19T23:49:12.902Z,2.74
2022-11-19T23:52:17.096Z,2.84
2022-11-19T23:55:28.823Z,2.81
2022-11-19T23:58:31.254Z,2.82
